Tiempo atmosférico en la estación meteorológica de Puerto De La Cruz, Santa Cruz de Tenerife (25 m.)



Fecha
DESCASC
Temp. máxima en grados centígrados (hora)
DESCASC
Temp. mínima en grados centígrados (hora)
DESCASC
Temp. media en grados centígrados
DESCASC
Racha de viento máxima en m/sg (hora)
DESCASC
Velocidad máxima media en intervalos de 10 minutos(hora)
DESCASC
Precipitaciones diarias en mm
DESCASC
Precipitaciones de 00:00 a 06:00 en mm
DESCASC
Precipitaciones de 06:00 a 12:00 en mm
DESCASC
Precipitaciones de 12:00 a 18:00 en mm
DESCASC
Precipitaciones de 18:00 a 24:00 en mm
DESCASC
13-10-2019 25.4 (17:10) 19.5 (04:40) 22.4 5 (13:10) 2.78 (13:30) 0 0 0 0 0
12-10-2019 27.2 (13:30) 20.3 (07:00) 23.8 5.83 (05:50) 3.89 (12:40) 0 0 0 0 0
10-10-2019 26.8 (15:00) 20.6 (00:00) 23.7 6.39 (13:40) 5 (13:40) 0 0 0 0 0
09-10-2019 26 (16:10) 20.6 (00:00) 23.3 7.5 (11:50) 5.83 (11:50) 0 0 0 0 0
08-10-2019 26.2 (14:20) 20.8 (00:00) 23.5 7.22 (13:00) 5.83 (15:10) 0 0 0 0 0
07-10-2019 26.6 (15:30) 21.9 (00:00) 24.3 8.61 (15:00) 6.11 (14:00) 0 0 0 0 0
06-10-2019 24.7 (13:00) 21.1 (00:00) 22.9 10 (16:00) 7.22 (16:00) 0 0 0 0 0
05-10-2019 26.5 (16:40) 21.7 (01:40) 24.1 12.5 (11:50) 8.33 (11:50) 0 0 0 0 0
04-10-2019 26.8 (15:00) 21.3 (00:00) 24 7.78 (15:50) 6.11 (12:50) 0 0 0 0 0
03-10-2019 26.8 (14:50) 20.6 (00:00) 23.7 9.72 (20:50) 7.78 (14:00) 0 0 0 0 0
02-10-2019 26.2 (16:20) 20.3 (00:00) 23.3 7.22 (18:10) 3.89 (17:30) 0 0 0 0 0
01-10-2019 25.6 (18:20) 20.4 (00:00) 23 7.78 (13:20) 5.83 (13:20) 0 0 0 0 0
30-09-2019 27.3 (14:10) 22 (00:00) 24.6 6.67 (00:20) 5 (15:10) 0 0 0 0 0
29-09-2019 27.4 (13:50) 22.3 (00:00) 24.8 7.78 (05:30) 5.28 (15:20) 0 0 0 0 0
28-09-2019 25.5 (12:00) 21 (00:00) 23.3 9.44 (13:20) 7.22 (13:20) 0 0 0 0 0
27-09-2019 25.8 (13:10) 21.9 (00:00) 23.8 7.78 (20:00) 6.11 (11:10) 0 0 0 0 0
26-09-2019 25.9 (12:10) 21.5 (00:00) 23.7 10.83 (05:40) 8.61 (05:50) 0 0 0 0 0
25-09-2019 26 (12:10) 21.5 (00:00) 23.8 7.78 (19:30) 6.11 (19:30) 0 0 0 0 0
24-09-2019 26.1 (12:20) 20.4 (00:00) 23.3 8.61 (18:30) 7.22 (13:40) 0 0 0 0 0
23-09-2019 25.7 (10:50) 21.4 (00:00) 23.6 9.17 (13:10) 6.94 (13:10) 0 0 0 0 0
22-09-2019 29.6 (15:00) 21.2 (00:00) 25.4 10 (21:50) 7.5 (21:40) 0 0 0 0 0
21-09-2019 27.1 (18:30) 20.2 (00:00) 23.7 3.33 (04:20) 1.94 (13:20) 0 0 0 0 0
20-09-2019 28.1 (17:20) 20 (00:00) 24.1 4.72 (13:20) 3.61 (13:20) 0 0 0 0 0
19-09-2019 27.3 (15:10) 20.7 (00:00) 24 6.39 (13:20) 4.72 (13:00) 0 0 0 0 0
18-09-2019 27.6 (15:30) 21.9 (00:00) 24.8 8.33 (14:00) 6.67 (14:00) 0 0 0 0 0
17-09-2019 25.4 (17:30) 22.5 (00:00) 23.9 7.22 (12:20) 5.56 (11:20) 0 0 0 0 0
16-09-2019 28.8 (07:50) 22.4 (00:00) 25.6 15.28 (07:40) 9.72 (07:50) 0.2 0 0.2 0 0

Gráficas

Temp. máximas Temp. mínimas Temp. medias Precipitaciones Rachas de viento máximas Velocidades máximas media en intervalos de 10 minutos

Datos horarios

Fecha y hora oficial Temperatura (ºC) Velocidad del viento (km/h) Dirección del viento Racha (km/h) Dirección de racha Precipitación (mm) Presión (hPa) Tendencia (hPa) Humedad (%)
2019-10-15 23:00:00 21.7 2 Sur 10 Nordeste 0 1018.7 1.3 66
2019-10-15 22:00:00 22.4 8 Nordeste 17 Nordeste 0 1018.3 1.4 67
2019-10-15 21:00:00 22.7 16 Nordeste 35 Nordeste 0 1017.9 1.2 69
2019-10-15 20:00:00 22.6 27 Nordeste 36 Nordeste 0 1017.4 0.8 70
2019-10-15 19:00:00 23.2 26 Nordeste 32 Nordeste 0 1016.9 0.2 66
2019-10-15 18:00:00 24.6 23 Nordeste 30 Nordeste 0 1016.7 -0.5 62
2019-10-15 17:00:00 25.6 17 Nordeste 35 Este 0 1016.6 -1.1 59
2019-10-15 16:00:00 25.3 22 Nordeste 36 Nordeste 0 1016.7 -1.8 59
2019-10-15 15:00:00 25.8 22 Nordeste 30 Nordeste 0 1017.2 -1.6 59
2019-10-15 14:00:00 25.1 14 Nordeste 28 Norte 0 1017.7 -1.1 58
2019-10-15 13:00:00 23.9 18 Nordeste 39 Nordeste 0 1018.5 -0.2 61
2019-10-15 12:00:00 23.7 26 Nordeste 34 Este 0 1018.8 0.4 65
2019-10-15 11:00:00 23.9 9 Nordeste 14 Nordeste 0 1018.8 0.4 65
2019-10-15 10:00:00 22.5 3 Noroeste 7 Noroeste 0 1018.7 0.3 68
2019-10-15 09:00:00 21.6 0 Calma 2 Sudoeste 0 1018.4 0.1 74
2019-10-15 08:00:00 21.1 0 Calma 11 Sur 0 1018.4 0.1 73
2019-10-15 07:00:00 21 7 Sudeste 18 Este 0 1018.4 -0.3 73
2019-10-15 06:00:00 20.7 2 Sur 14 Sudeste 0 1018.3 -0.7 69
2019-10-15 05:00:00 20.3 5 Sur 13 Sudeste 0 1018.3 -1.1 64
2019-10-15 04:00:00 19.9 6 Sur 15 Sudeste 0 1018.7 -1.2 64
2019-10-15 03:00:00 19.4 7 Sur 16 Sudeste 0 1019 -1.1 65
2019-10-15 02:00:00 19.7 6 Sur 15 Sudeste 0 1019.4 -0.4 68
2019-10-15 01:00:00 20 5 Sudeste 13 Sudeste 0 1019.9 0.3 69
2019-10-15 00:00:00 20.6 5 Sudeste 13 Sudeste 0 1020.1 1.5 69
2019-10-14 23:00:00 20.6 6 Sur 13 Sur 0 1019.8 1.8 68
2019-10-14 22:00:00 20.8 3 Sur 12 Sur 0 1019.6 1.9 70
2019-10-14 21:00:00 22 10 Este 21 Nordeste 0 1018.6 0.9 71
2019-10-14 20:00:00 22.3 15 Nordeste 21 Nordeste 0 1018 0.1 70
2019-10-14 19:00:00 23.5 15 Nordeste 20 Nordeste 0 1017.7 -0.3 68
2019-10-14 18:00:00 23.6 10 Nordeste 21 Este 0 1017.7 -0.6 66
2019-10-14 17:00:00 24.1 12 Nordeste 19 Nordeste 0 1017.9 -0.8 65
2019-10-14 16:00:00 24.2 14 Nordeste 20 Nordeste 0 1018 -1.2 66
2019-10-14 15:00:00 24.1 4 Nordeste 14 Este 0 1018.3 -1.1 70
2019-10-14 14:00:00 24.4 5 Nordeste 11 Nordeste 0 1018.7 -0.6 69
2019-10-14 13:00:00 23.2 6 Este 17 Nordeste 0 1019.2 0.5 74
2019-10-14 12:00:00 22.8 8 Este 15 Este 0 1019.4 1.3 74
2019-10-14 11:00:00 22.2 3 Este 29 Nordeste 0 1019.3 1.4 82
2019-10-14 10:00:00 21.7 12 Nordeste 30 Norte 0 1018.7 1.7 79
2019-10-14 09:00:00 21.2 5 Sudeste 17 Sudeste 0 1018.1 1.6 77
2019-10-14 08:00:00 20.4 10 Este 28 Nordeste 0 1017.9 1.6 83
2019-10-14 07:00:00 21.3 23 Nordeste 37 Nordeste 0 1017 1 88
2019-10-14 06:00:00 21.7 6 Este 17 Nordeste 0 1016.5 0.2 79
2019-10-14 05:00:00 21.7 17 Nordeste 23 Nordeste 0 1016.3 -0.2 83
2019-10-14 04:00:00 21.3 3 Sudeste 11 Nordeste 0 1016 -0.8 66
2019-10-14 03:00:00 20.7 6 Sur 13 Sudeste 0 1016.3 -0.5 63
2019-10-14 02:00:00 20.8 5 Sur 11 Sudeste 0 1016.5 0 68
2019-10-14 01:00:00 21.4 5 Sur 10 Sudeste 0 1016.8 1 65
2019-10-14 00:00:00 21.4 8 Sur 14 Sudeste 0 1016.8 1.8 63
2019-10-13 23:00:00 21.7 5 Sur 10 Sur 0 1016.5 2.1 65
2019-10-13 22:00:00 22.5 5 Sur 13 Sur 0 1015.8 1.8 65
2019-10-13 21:00:00 23.3 3 Norte 5 Norte 0 1015 1.1 70
2019-10-13 20:00:00 23.7 0 Calma 6 Nordeste 0 1014.4 0.9 67
2019-10-13 19:00:00 24.7 3 Noroeste 9 Noroeste 0 1014 0.9 63
2019-10-13 18:00:00 24.2 4 Noroeste 10 Noroeste 0 1013.9 0.6 61
2019-10-13 17:00:00 24.8 4 Noroeste 12 Noroeste 0 1013.5 -0.1 61
2019-10-13 16:00:00 24.6 8 Noroeste 13 Noroeste 0 1013.1 -0.8 61
2019-10-13 15:00:00 24.4 8 Oeste 14 Noroeste 0 1013.3 -0.4 62
2019-10-13 14:00:00 24 9 Noroeste 18 Noroeste 0 1013.6 -0.1 63
2019-10-13 13:00:00 24 9 Oeste 17 Noroeste 0 1013.9 0.5 63
2019-10-13 12:00:00 23.8 5 Norte 12 Norte 0 1013.7 0.3 61
2019-10-13 11:00:00 23.2 6 Noroeste 11 Noroeste 0 1013.7 0.5 61
2019-10-13 10:00:00 24.1 0 Calma 16 Sur 0 1013.4 0.5 55
2019-10-13 09:00:00 20.7 8 Sur 15 Sur 0 1013.4 0.7 62
2019-10-13 08:00:00 19.9 8 Sur 14 Sudeste 0 1013.2 0.4 62
2019-10-13 07:00:00 20.1 5 Sur 15 Sur 0 1012.9 0.4 65
2019-10-13 06:00:00 19.7 6 Sur 12 Sur 0 1012.7 -0.2 65
2019-10-13 05:00:00 19.8 2 Sur 9 Sur 0 1012.8 -0.6 64
2019-10-13 04:00:00 19.8 4 Sur 12 Sur 0 1012.5 -1.1 62
2019-10-13 03:00:00 19.8 6 Sur 13 Sudeste 0 1012.9 -0.9 65
2019-10-13 02:00:00 20 4 Sur 12 Sur 0 1013.4 -0.3 65
2019-10-13 01:00:00 20.2 5 Sur 11 Sudeste 0 1013.6 0.4 66
2019-10-13 00:00:00 20.5 5 Sur 14 Sudeste 0 1013.8 0.9 65
2019-10-12 23:00:00 21.6 4 Sur 12 Sur 0 1013.7 1.4 64
2019-10-12 22:00:00 22.1 6 Sur 12 Sudeste 0 1013.2 1.3 63
2019-10-12 21:00:00 23.1 2 Sur 7 Nordeste 0 1012.9 0.7 64
2019-10-12 20:00:00 23.5 5 Nordeste 10 Nordeste 0 1012.3 -0.2 64
2019-10-12 19:00:00 25.2 6 Nordeste 12 Nordeste 0 1011.9 -0.7 58
2019-10-12 18:00:00 25.4 7 Nordeste 11 Nordeste 0 1012.2 -0.6 58
2019-10-12 17:00:00 25.4 6 Nordeste 12 Norte 0 1012.5 -0.8 58
2019-10-12 16:00:00 25.2 7 Nordeste 16 Nordeste 0 1012.6 -1.1 56
2019-10-12 15:00:00 26 10 Nordeste 17 Nordeste 0 1012.8 -1.6 57
2019-10-12 14:00:00 26.3 12 Nordeste 17 Nordeste 0 1013.3 -0.9 58
2019-10-12 13:00:00 26.5 11 Nordeste 17 Nordeste 0 1013.7 -0.4 58
2019-10-12 12:00:00 24.8 10 Nordeste 17 Nordeste 0 1014.4 0.2 60
2019-10-12 11:00:00 24.7 12 Nordeste 16 Nordeste 0 1014.2 -0.1 59
2019-10-12 10:00:00 23.5 4 Sudeste 15 Sur 0 1014.1 0 58
2019-10-12 09:00:00 22 4 Sudeste 10 Sur 0 1014.2 0.3 63
2019-10-12 08:00:00 21.2 5 Sur 13 Sudeste 0 1014.3 0.7 65
2019-10-12 07:00:00 20.4 8 Sur 13 Sur 0 1014.1 0.2 66
2019-10-12 06:00:00 20.7 8 Sur 21 Sudeste 0 1013.9 -0.3 65
2019-10-12 05:00:00 20.5 5 Sur 15 Sudeste 0 1013.6 -1.3 65
2019-10-12 04:00:00 21.3 8 Sudeste 14 Sudeste 0 1013.9 -1.4 63
2019-10-12 03:00:00 22.7 4 Este 15 Nordeste 0 1014.2 -1.4 66
2019-10-12 02:00:00 22.8 4 Este 8 Nordeste 0 1014.9 -0.6 72
2019-10-12 01:00:00 22.8 6 Este 14 Este 0 1015.3 0.2 76
2019-10-12 00:00:00 23 10 Este 16 Nordeste 0 1015.6 1.2 78
2019-10-11 23:00:00 23 8 Este 16 Este 0 1015.5 1.9 78
2019-10-11 22:00:00 23.2 12 Nordeste 17 Nordeste 0 1015.1 1.7 77
2019-10-11 21:00:00 23.3 13 Nordeste 18 Nordeste 0 1014.4 1.3 76
2019-10-11 20:00:00 23.5 9 Nordeste 12 Nordeste 0 1013.6 0.5 74
2019-10-11 19:00:00 24.1 8 Nordeste 14 Norte 0 1013.4 0.1 71
2019-10-11 18:00:00 24.1 9 Norte 11 Norte 0 1013.1 -0.6 70
2019-10-11 17:00:00 25.2 5 Nordeste 10 Nordeste 0 1013.1 -0.9 69
2019-10-11 16:00:00 25.2 6 Nordeste 10 Nordeste 0 1013.3 -1.3 69
2019-10-11 15:00:00 25.4 6 Nordeste 11 Nordeste 0 1013.7 -1.6 66
2019-10-11 14:00:00 26.1 8 Nordeste 14 Nordeste 0 1014 -1.2 65
2019-10-11 13:00:00 26.2 12 Nordeste 15 Nordeste 0 1014.6 -0.4 64
2019-10-11 12:00:00 24.6 9 Nordeste 15 Norte 0 1015.3 0.5 68
2019-10-11 11:00:00 25 5 Nordeste 9 Nordeste 0 1015.2 0.8 59
2019-10-11 10:00:00 24 2 Este 11 Sur 0 1015 0.9 58
2019-10-11 09:00:00 21.4 7 Sur 13 Sur 0 1014.8 0.7 60
2019-10-11 08:00:00 20.4 6 Sur 12 Sur 0 1014.4 0.5 61
2019-10-11 07:00:00 20.7 6 Sur 10 Sudeste 0 1014.1 0.1 61
2019-10-11 06:00:00 20.6 0 Calma 13 Sur 0 1014.1 -0.2 62
2019-10-11 05:00:00 20.8 5 Sur 14 Sur 0 1013.9 -0.6 63
2019-10-11 04:00:00 20.8 4 Sudeste 14 Sudeste 0 1014 -1.1 63
2019-10-11 03:00:00 21.2 0 Calma 14 Sur 0 1014.3 -0.8 64
2019-10-11 02:00:00 21.8 3 Sur 8 Sur 0 1014.5 -0.6 65
2019-10-11 01:00:00 22.2 3 Sur 13 Nordeste 0 1015.1 0.4 78
2019-10-11 00:00:00 22.6 11 Nordeste 16 Nordeste 0 1015.1 1.2 81
2019-10-10 23:00:00 22.8 10 Nordeste 18 Nordeste 0 1015.1 1.8 77
2019-10-10 22:00:00 22.8 14 Nordeste 20 Nordeste 0 1014.7 1.7 79
2019-10-10 21:00:00 23 15 Nordeste 21 Nordeste 0 1013.9 1.3 79
2019-10-10 20:00:00 23.2 15 Nordeste 19 Nordeste 0 1013.3 0.6 77
2019-10-10 19:00:00 23.7 14 Nordeste 21 Nordeste 0 1013 0.4 76
2019-10-10 18:00:00 24.3 14 Nordeste 18 Nordeste 0 1012.6 0 73
2019-10-10 17:00:00 24.7 15 Nordeste 18 Nordeste 0 1012.7 -0.6 74
2019-10-10 16:00:00 25.2 15 Nordeste 21 Nordeste 0 1012.6 -1.9 70
2019-10-10 15:00:00 26.8 15 Nordeste 20 Nordeste 0 1012.6 -2 67
2019-10-10 14:00:00 25.5 14 Nordeste 23 Nordeste 0 1013.3 -1.3 71
2019-10-10 13:00:00 24.8 14 Nordeste 21 Nordeste 0 1014.5 0 73
2019-10-10 12:00:00 25.2 14 Nordeste 18 Nordeste 0 1014.6 0.3 70
2019-10-10 11:00:00 25.8 6 Nordeste 10 Nordeste 0 1014.6 0.5 63
2019-10-10 10:00:00 24 3 Este 13 Sudeste 0 1014.5 0.6 60
2019-10-10 09:00:00 21.4 4 Sur 12 Sur 0 1014.3 0.6 66
2019-10-10 08:00:00 21.1 5 Sur 13 Sur 0 1014.1 0.4 68
2019-10-10 07:00:00 21.4 4 Sur 15 Sur 0 1013.9 0 70
2019-10-10 06:00:00 20.7 7 Sur 13 Sur 0 1013.7 -0.6 68
2019-10-10 05:00:00 20.9 6 Sur 14 Sur 0 1013.7 -1 68
2019-10-10 04:00:00 21.2 5 Sur 12 Sudeste 0 1013.9 -1.4 68
2019-10-10 03:00:00 21.6 6 Sur 13 Sur 0 1014.3 -1.2 68
2019-10-10 02:00:00 22.2 4 Sur 9 Sudeste 0 1014.7 -0.7 67
2019-10-10 01:00:00 22 5 Sur 11 Sur 0 1015.3 0.3 67
2019-10-10 00:00:00 22.4 4 Sur 12 Sur 0 1015.5 0.8 65
2019-10-09 23:00:00 22.1 4 Sur 15 Sur 0 1015.4 1.2 67
2019-10-09 22:00:00 22.9 11 Este 21 Este 0 1015 1.3 70
2019-10-09 21:00:00 23.3 13 Nordeste 18 Nordeste 0 1014.7 1.1 74
2019-10-09 20:00:00 23.6 11 Nordeste 15 Este 0 1014.2 0.7 71
2019-10-09 19:00:00 24.4 6 Nordeste 18 Nordeste 0 1013.7 0.1 66
2019-10-09 18:00:00 24.5 13 Nordeste 19 Nordeste 0 1013.6 -0.5 63
2019-10-09 17:00:00 25.1 15 Nordeste 19 Nordeste 0 1013.5 -0.9 64
2019-10-09 16:00:00 25.8 13 Nordeste 17 Nordeste 0 1013.6 -1.2 62
2019-10-09 15:00:00 25.3 12 Nordeste 18 Nordeste 0 1014.1 -0.9 63
2019-10-09 14:00:00 25.2 15 Nordeste 23 Nordeste 0 1014.4 -0.6 64
2019-10-09 13:00:00 24.8 18 Nordeste 27 Este 0 1014.8 -0.2 63
2019-10-09 12:00:00 24.9 17 Nordeste 27 Nordeste 0 1015 -0.1 63
2019-10-09 11:00:00 24.2 14 Nordeste 22 Nordeste 0 1015 0.1 65
2019-10-09 10:00:00 23.8 9 Este 17 Nordeste 0 1015 0.4 65
2019-10-09 09:00:00 21.9 5 Sudeste 13 Sudeste 0 1015.1 0.6 69
2019-10-09 08:00:00 20.8 6 Sur 17 Sur 0 1014.9 0.3 71
2019-10-09 07:00:00 21 5 Sur 11 Sur 0 1014.6 -0.2 71
2019-10-09 06:00:00 21.4 4 Sudeste 11 Sur 0 1014.5 -1 69
2019-10-09 05:00:00 21.5 3 Sudeste 11 Sudeste 0 1014.6 -0.9 70
2019-10-09 04:00:00 21.7 5 Sudeste 11 Sudeste 0 1014.8 -0.7 68
2019-10-09 03:00:00 21.8 4 Sudeste 13 Sur 0 1015.5 -0.5 69
2019-10-09 02:00:00 21.7 4 Sudeste 9 Sudeste 0 1015.5 0 70
2019-10-09 01:00:00 22.1 4 Sudeste 9 Sudeste 0 1015.5 0.2 71
2019-10-09 00:00:00 21.7 4 Sudeste 11 Sur 0 1016 1.3 71
2019-10-08 23:00:00 22.2 3 Sudeste 11 Este 0 1015.5 1.3 71
2019-10-08 22:00:00 22.9 6 Este 20 Nordeste 0 1015.3 1.3 71
2019-10-08 21:00:00 22.9 13 Nordeste 20 Nordeste 0 1014.7 0.9 73
2019-10-08 20:00:00 23.1 17 Nordeste 21 Nordeste 0 1014.2 0.4 74
2019-10-08 19:00:00 23.4 17 Nordeste 24 Nordeste 0 1014 0 74
2019-10-08 18:00:00 23.7 15 Nordeste 21 Este 0 1013.8 0.1 72
2019-10-08 17:00:00 24.1 14 Nordeste 23 Nordeste 0 1013.8 -0.1 71
2019-10-08 16:00:00 24.5 19 Nordeste 25 Nordeste 0 1014 -0.6 70
2019-10-08 15:00:00 25.4 20 Nordeste 25 Nordeste 0 1013.7 -1.4 67
2019-10-08 14:00:00 26.1 19 Nordeste 24 Este 0 1013.9 -1.6 65
2019-10-08 13:00:00 25.1 19 Nordeste 26 Este 0 1014.6 -1.2 66
2019-10-08 12:00:00 24.5 17 Nordeste 23 Nordeste 0 1015.1 -0.5 67
2019-10-08 11:00:00 24.2 14 Nordeste 23 Nordeste 0 1015.5 0.4 70
2019-10-08 10:00:00 23 8 Este 14 Este 0 1015.8 1 71
2019-10-08 09:00:00 22.1 5 Este 12 Sudeste 0 1015.6 1.1 74
2019-10-08 08:00:00 21.8 3 Sudeste 10 Sudeste 0 1015.1 0.5 76
2019-10-08 07:00:00 21.7 4 Sudeste 9 Sur 0 1014.8 0.5 76
2019-10-08 06:00:00 21.5 5 Sudeste 10 Sudeste 0 1014.5 -0.2 77
2019-10-08 05:00:00 21.3 5 Sur 12 Sudeste 0 1014.6 -0.3 78
2019-10-08 04:00:00 21.1 5 Sur 10 Sur 0 1014.3 -0.7 78
2019-10-08 03:00:00 21.5 5 Sudeste 10 Sur 0 1014.7 -0.7 77
2019-10-08 02:00:00 21.5 5 Sudeste 11 Sudeste 0 1014.9 -0.7 76
2019-10-08 01:00:00 21.5 5 Sur 12 Sur 0 1015 0.4 75
2019-10-08 00:00:00 22.1 5 Sudeste 13 Sudeste 0 1015.4 0.7 73
2019-10-07 23:00:00 22.5 4 Sudeste 16 Nordeste 0 1015.6 1.5 72
2019-10-07 22:00:00 22.9 12 Nordeste 20 Nordeste 0 1014.6 1 73
2019-10-07 21:00:00 23.2 16 Nordeste 23 Este 0 1014.7 1 76
2019-10-07 20:00:00 23.3 16 Este 24 Nordeste 0 1014.1 0.3 77
2019-10-07 19:00:00 23.4 20 Nordeste 25 Nordeste 0 1013.6 0 76
2019-10-07 18:00:00 24 17 Nordeste 23 Nordeste 0 1013.7 0.1 72
2019-10-07 17:00:00 24.7 19 Nordeste 24 Nordeste 0 1013.8 -0.2 70
2019-10-07 16:00:00 25.2 20 Nordeste 28 Nordeste 0 1013.6 -1.3 68
2019-10-07 15:00:00 26 21 Nordeste 31 Nordeste 0 1013.6 -1.8 66
2019-10-07 14:00:00 26.1 22 Nordeste 29 Nordeste 0 1014 -1.5 66
2019-10-07 13:00:00 25.9 11 Nordeste 23 Nordeste 0 1014.9 -0.5 64
2019-10-07 12:00:00 24.8 10 Nordeste 18 Nordeste 0 1015.4 0.2 67
2019-10-07 11:00:00 24 4 Nordeste 15 Nordeste 0 1015.5 0.6 69
2019-10-07 10:00:00 23 0 Calma 13 Sudeste 0 1015.4 0.9 69
2019-10-07 09:00:00 22.3 5 Sudeste 10 Sudeste 0 1015.2 0.8 68
2019-10-07 08:00:00 22.3 6 Sudeste 14 Sudeste 0 1014.9 0.6 69
2019-10-07 07:00:00 22.2 6 Sudeste 13 Sur 0 1014.5 0 68
2019-10-07 06:00:00 22.3 3 Este 10 Sudeste 0 1014.4 -0.5 68
2019-10-07 05:00:00 22.4 4 Sudeste 13 Sur 0 1014.3 -1 69
2019-10-07 04:00:00 22.2 5 Sudeste 13 Sudeste 0 1014.5 -1.5 68
2019-10-07 03:00:00 22.4 3 Sudeste 12 Sudeste 0 1014.9 -1.6 70
2019-10-07 02:00:00 22.5 7 Este 14 Este 0 1015.3 -1.2 69
2019-10-07 01:00:00 22.7 3 Este 23 Nordeste 0 1016 -0.4 71
2019-10-07 00:00:00 22.8 6 Nordeste 23 Nordeste 0 1016.5 0.5 74
2019-10-06 23:00:00 22.8 10 Nordeste 22 Nordeste 0 1016.5 1 74
2019-10-06 22:00:00 22.8 17 Nordeste 22 Nordeste 0 1016.4 0.9 78
2019-10-06 21:00:00 22.8 15 Nordeste 33 Nordeste 0 1016 0.5 75
2019-10-06 20:00:00 23 21 Nordeste 31 Nordeste 0 1015.5 0.2 73
2019-10-06 19:00:00 23.2 21 Nordeste 30 Nordeste 0 1015.5 -0.2 77
2019-10-06 18:00:00 23.1 20 Este 33 Nordeste 0 1015.5 -0.2 76
2019-10-06 17:00:00 23.5 21 Nordeste 33 Nordeste 0 1015.3 -0.6 74
2019-10-06 16:00:00 23.8 26 Nordeste 36 Nordeste 0 1015.7 -0.7 73
2019-10-06 15:00:00 24 23 Nordeste 31 Nordeste 0 1015.7 -0.6 71
2019-10-06 14:00:00 24.2 22 Nordeste 29 Nordeste 0 1015.9 -0.9 71
2019-10-06 13:00:00 24.5 20 Nordeste 26 Nordeste 0 1016.4 -0.2 67
2019-10-06 12:00:00 23.9 19 Nordeste 26 Nordeste 0 1016.3 -0.2 70
2019-10-06 11:00:00 23.5 13 Nordeste 28 Nordeste 0 1016.8 0.5 75
2019-10-06 10:00:00 22.8 16 Nordeste 30 Nordeste 0 1016.6 0.8 77
2019-10-06 09:00:00 22.2 10 Nordeste 27 Nordeste 0 1016.5 0.9 79
2019-10-06 08:00:00 21.4 5 Sudeste 14 Sudeste 0 1016.3 0.7 74
2019-10-06 07:00:00 21.4 4 Sudeste 13 Sudeste 0 1015.8 0 74
2019-10-06 06:00:00 21.4 4 Sudeste 14 Sudeste 0 1015.6 -0.8 74
2019-10-06 05:00:00 21.9 10 Este 27 Nordeste 0 1015.6 -1 81
2019-10-06 04:00:00 22.1 8 Este 19 Este 0 1015.8 -0.8 81
2019-10-06 03:00:00 22.1 8 Este 17 Sur 0 1016.4 -0.5 77
2019-10-06 02:00:00 22.1 6 Sudeste 17 Sudeste 0 1016.6 -0.2 75
2019-10-06 01:00:00 21.5 6 Sur 14 Este 0 1016.6 0.2 75
2019-10-06 00:00:00 22 5 Sudeste 16 Sudeste 0 1016.9 1.3 76
2019-10-05 23:00:00 22.5 4 Este 26 Este 0 1016.8 1.3 78
2019-10-05 22:00:00 22.8 19 Este 30 Nordeste 0 1016.4 1.3 83
2019-10-05 21:00:00 23.4 17 Nordeste 26 Nordeste 0 1015.6 1.4 79
2019-10-05 20:00:00 23.4 19 Nordeste 31 Este 0 1015.5 1.5 80
2019-10-05 19:00:00 23.6 16 Nordeste 33 Nordeste 0 1015.1 0.9 84
2019-10-05 18:00:00 24.9 19 Nordeste 27 Nordeste 0 1014.2 -0.6 75
2019-10-05 17:00:00 25.9 14 Nordeste 28 Nordeste 0 1014 -1 72
2019-10-05 16:00:00 25.6 17 Nordeste 22 Nordeste 0 1014.2 -1.6 72
2019-10-05 15:00:00 25 18 Nordeste 35 Nordeste 0 1014.8 -1.2 75
2019-10-05 14:00:00 26.1 13 Nordeste 34 Nordeste 0 1015 -0.7 71
2019-10-05 13:00:00 25.5 18 Este 32 Este 0 1015.8 0.8 75
2019-10-05 12:00:00 24.4 23 Nordeste 45 Nordeste 0 1016 1 80
2019-10-05 11:00:00 24.6 20 Nordeste 41 Nordeste 0 1015.7 0.8 78
2019-10-05 10:00:00 24.8 11 Este 26 Este 0 1015 0.2 76
2019-10-05 09:00:00 23.2 6 Sudeste 16 Sudeste 0 1015 0.4 71
2019-10-05 08:00:00 22.4 5 Sudeste 16 Este 0 1014.9 0.5 75
2019-10-05 07:00:00 22.2 5 Sudeste 13 Sudeste 0 1014.8 0.6 74
2019-10-05 06:00:00 21.9 5 Sur 13 Sur 0 1014.6 -0.2 75
2019-10-05 05:00:00 22 5 Sur 13 Sudeste 0 1014.4 -0.5 75
2019-10-05 04:00:00 22.4 5 Sudeste 15 Este 0 1014.2 -1.1 74
2019-10-05 03:00:00 22.4 6 Sudeste 13 Sur 0 1014.8 -1 75
2019-10-05 02:00:00 22 5 Sudeste 13 Sudeste 0 1014.9 -1 76
2019-10-05 01:00:00 22.2 4 Sur 10 Sudeste 0 1015.3 -0.5 76
2019-10-05 00:00:00 22.5 4 Sur 15 Este 0 1015.8 0.1 76
2019-10-04 23:00:00 22.8 10 Nordeste 22 Nordeste 0 1015.9 0.5 77
2019-10-04 22:00:00 23.2 17 Nordeste 24 Nordeste 0 1015.8 0.9 77
2019-10-04 21:00:00 23.4 19 Nordeste 27 Nordeste 0 1015.7 1.1 78
2019-10-04 20:00:00 23.6 17 Nordeste 25 Nordeste 0 1015.4 1.2 78
2019-10-04 19:00:00 24.1 18 Nordeste 23 Nordeste 0 1014.9 0.6 77
2019-10-04 18:00:00 24.5 17 Nordeste 25 Nordeste 0 1014.6 -0.3 72
2019-10-04 17:00:00 25.6 19 Nordeste 25 Este 0 1014.2 -1.2 70
2019-10-04 16:00:00 26 20 Nordeste 28 Nordeste 0 1014.3 -2.1 67
2019-10-04 15:00:00 26.6 19 Nordeste 26 Nordeste 0 1014.9 -2 66
2019-10-04 14:00:00 26.2 20 Nordeste 27 Nordeste 0 1015.4 -1.9 67
2019-10-04 13:00:00 25.6 22 Nordeste 27 Nordeste 0 1016.4 -0.9 70
2019-10-04 12:00:00 24.7 21 Nordeste 26 Nordeste 0 1016.9 -0.3 74
2019-10-04 11:00:00 24.3 19 Nordeste 24 Nordeste 0 1017.3 0 75
2019-10-04 10:00:00 23.7 10 Nordeste 16 Nordeste 0 1017.3 0.4 77
2019-10-04 09:00:00 21.8 6 Sur 12 Sudeste 0 1017.2 0.6 82
2019-10-04 08:00:00 21.4 6 Sur 12 Sudeste 0 1017.3 0.2 83
2019-10-04 07:00:00 21.4 6 Sur 13 Sudeste 0 1016.9 -0.2 82
2019-10-04 06:00:00 21.5 6 Sudeste 12 Sur 0 1016.6 -0.5 84
2019-10-04 05:00:00 21.8 3 Sudeste 14 Este 0 1017.1 -0.2 84
2019-10-04 04:00:00 22.1 5 Este 13 Este 0 1017.1 -0.3 86
2019-10-04 03:00:00 22 4 Este 16 Nordeste 0 1017.1 -0.5 86
2019-10-04 02:00:00 21.9 2 Este 12 Sur 0 1017.3 -0.8 86
2019-10-04 01:00:00 21.8 0 Calma 5 Sudeste 0 1017.4 -0.1 86
2019-10-04 00:00:00 22.6 5 Nordeste 20 Nordeste 0 1017.6 0.7 86
2019-10-03 23:00:00 22.8 16 Nordeste 32 Nordeste 0 1018.1 1.3 86
2019-10-03 22:00:00 22.9 25 Nordeste 35 Nordeste 0 1017.5 0.9 86
2019-10-03 21:00:00 23 23 Nordeste 35 Nordeste 0 1016.9 0.3 86
2019-10-03 20:00:00 23.3 23 Nordeste 35 Nordeste 0 1016.8 0.2 84
2019-10-03 19:00:00 23.9 24 Nordeste 33 Nordeste 0 1016.6 -0.3 80
2019-10-03 18:00:00 24.7 22 Nordeste 30 Nordeste 0 1016.6 0 77
2019-10-03 17:00:00 25.8 23 Nordeste 32 Nordeste 0 1016.6 -0.8 72
2019-10-03 16:00:00 26 24 Nordeste 33 Nordeste 0 1016.9 -0.7 72
2019-10-03 15:00:00 26.3 23 Nordeste 32 Nordeste 0 1016.6 -1.3 71
2019-10-03 14:00:00 26.1 28 Nordeste 34 Nordeste 0 1017.4 -0.7 74
2019-10-03 13:00:00 26.3 17 Nordeste 24 Nordeste 0 1017.6 -0.5 74
2019-10-03 12:00:00 25 12 Nordeste 26 Nordeste 0 1017.9 -0.1 79
2019-10-03 11:00:00 24.1 3 Norte 10 Norte 0 1018.1 0.7 83
2019-10-03 10:00:00 23.6 0 Calma 7 Sudoeste 0 1018.1 1.2 85
2019-10-03 09:00:00 22.5 0 Calma 6 Sur 0 1018 1.5 87
2019-10-03 08:00:00 21.5 0 Calma 9 Sur 0 1017.4 0.8 90
2019-10-03 07:00:00 21 0 Calma 8 Sur 0 1016.9 0.5 84
2019-10-03 06:00:00 20.9 4 Sur 8 Sudeste 0 1016.5 -0.2 83
2019-10-03 05:00:00 21.7 0 Calma 5 Sur 0 1016.6 -0.1 87
2019-10-03 04:00:00 21.7 2 Sur 11 Sur 0 1016.4 -0.5 87
2019-10-03 03:00:00 22.5 2 Sur 9 Sudoeste 0 1016.7 -0.2 89
2019-10-03 02:00:00 23.1 4 Sudoeste 12 Oeste 0 1016.7 -0.4 88
2019-10-03 01:00:00 23.3 0 Calma 13 Sudoeste 0 1016.9 0.4 89
2019-10-03 00:00:00 23.5 4 Oeste 16 Norte 0 1016.9 1.4 91
2019-10-02 23:00:00 23.7 3 Norte 7 Norte 0 1017.1 1.9 90
2019-10-02 22:00:00 23.8 2 Oeste 8 Noroeste 0 1016.5 1.9 91
2019-10-02 21:00:00 23.9 3 Norte 12 Sudoeste 0 1015.5 1 90
2019-10-02 20:00:00 24.1 6 Oeste 20 Sudoeste 0 1015.2 1.3 89
2019-10-02 19:00:00 24.5 13 Sudoeste 26 Sudoeste 0 1014.6 0.7 86
2019-10-02 18:00:00 25.1 13 Sudoeste 25 Sudoeste 0 1014.5 0.1 80
2019-10-02 17:00:00 26.1 10 Oeste 22 Oeste 0 1013.9 -0.6 76
2019-10-02 16:00:00 25.5 13 Oeste 24 Sudoeste 0 1013.9 -0.7 76
2019-10-02 15:00:00 25.5 9 Oeste 20 Sudoeste 0 1014.4 -0.4 79
2019-10-02 14:00:00 25.1 12 Sudoeste 21 Sudoeste 0 1014.5 -0.8 78
2019-10-02 13:00:00 25.3 11 Oeste 21 Sudoeste 0 1014.6 -0.3 78
2019-10-02 12:00:00 24.4 12 Sudoeste 19 Sudoeste 0 1014.8 0 81
2019-10-02 11:00:00 23.4 11 Sudoeste 19 Oeste 0 1015.3 0.2 85
2019-10-02 10:00:00 23.2 4 Oeste 9 Oeste 0 1014.9 0 84
2019-10-02 09:00:00 22.2 2 Sudoeste 6 Sur 0 1014.8 0.1 86
2019-10-02 08:00:00 20.5 0 Calma 5 Sur 0 1015.1 0.5 82
2019-10-02 07:00:00 20.7 0 Calma 7 Sur 0 1014.9 0 84
2019-10-02 06:00:00 20.9 3 Sur 8 Sur 0 1014.7 -0.5 86
2019-10-02 05:00:00 22.1 3 Sur 10 Sudoeste 0 1014.6 -1.2 89
2019-10-02 04:00:00 22.8 0 Calma 10 Sudoeste 0 1014.9 -1.4 88
2019-10-02 03:00:00 23.1 0 Calma 9 Norte 0 1015.2 -1.3 89
2019-10-02 02:00:00 23.2 4 Norte 10 Nordeste 0 1015.8 0.1 89
2019-10-02 01:00:00 23.3 0 Calma 8 Oeste 0 1016.3 1.4 90
2019-10-02 00:00:00 23 0 Calma 9 Sudeste 0 1016.5 2.3 90
2019-10-01 23:00:00 23.1 3 Sudeste 9 Sudeste 0 1015.7 2.1 89
2019-10-01 22:00:00 23.5 3 Este 10 Sudoeste 0 1014.9 1.7 88
2019-10-01 21:00:00 23.6 5 Sudoeste 17 Oeste 0 1014.2 1.3 89
2019-10-01 20:00:00 23.8 8 Sudoeste 18 Sudoeste 0 1013.6 0.2 86
2019-10-01 19:00:00 25.1 8 Sudoeste 14 Oeste 0 1013.2 -0.4 79
2019-10-01 18:00:00 25.1 6 Oeste 18 Oeste 0 1012.9 -1.5 79
2019-10-01 17:00:00 24.4 6 Oeste 13 Oeste 0 1013.4 -1.7 81
2019-10-01 16:00:00 24.5 2 Norte 22 Nordeste 0 1013.6 -2.2 81
2019-10-01 15:00:00 24.6 17 Nordeste 26 Nordeste 0 1014.4 -1.6 82
2019-10-01 14:00:00 24.7 19 Nordeste 28 Nordeste 0 1015.1 -0.4 80
2019-10-01 13:00:00 25 21 Nordeste 27 Nordeste 0 1015.8 0.2 79
2019-10-01 12:00:00 24.4 6 Norte 17 Nordeste 0 1016 1.2 79
2019-10-01 11:00:00 23.9 2 Oeste 12 Sudoeste 0 1015.5 0.9 78
2019-10-01 10:00:00 23.2 6 Sudoeste 11 Oeste 0 1015.6 1.3 83
2019-10-01 09:00:00 21.9 3 Sudoeste 8 Sudoeste 0 1014.8 1.3 87
2019-10-01 08:00:00 20.7 0 Calma 7 Sur 0 1014.6 1.3 88
2019-10-01 07:00:00 20.5 4 Sur 7 Sur 0 1014.3 0.8 87
2019-10-01 06:00:00 20.6 3 Sur 10 Sur 0 1013.5 -0.4 86
2019-10-01 05:00:00 21.2 0 Calma 8 Sudoeste 0 1013.3 -1.1 87
2019-10-01 04:00:00 21.5 0 Calma 7 Sudoeste 0 1013.5 -1 87
2019-10-01 03:00:00 21.6 3 Sudoeste 7 Sudoeste 0 1013.9 -0.7 86
2019-10-01 02:00:00 21.5 0 Calma 7 Sur 0 1014.4 -0.3 85
2019-10-01 01:00:00 21.9 3 Sur 5 Sur 0 1014.5 0.2 84
2019-10-01 00:00:00 22.1 2 Sur 8 Sudeste 0 1014.6 1.1 84
2019-09-30 23:00:00 22.7 2 Este 19 Este 0 1014.7 1.5 84
2019-09-30 22:00:00 22.9 12 Este 18 Este 0 1014.3 1.4 83
2019-09-30 21:00:00 23.3 15 Nordeste 21 Nordeste 0 1013.5 0.7 83
2019-09-30 20:00:00 23.8 17 Nordeste 21 Nordeste 0 1013.2 0.1 81
2019-09-30 19:00:00 24.2 15 Nordeste 23 Nordeste 0 1012.9 0.1 79
2019-09-30 18:00:00 24.3 17 Nordeste 22 Nordeste 0 1012.8 -0.2 78
2019-09-30 17:00:00 24.6 16 Nordeste 24 Nordeste 0 1013.1 0.3 78
2019-09-30 16:00:00 24.9 17 Nordeste 23 Nordeste 0 1012.8 -0.4 76
2019-09-30 15:00:00 25.9 18 Nordeste 24 Nordeste 0 1013 -0.1 72
2019-09-30 14:00:00 26.7 17 Nordeste 21 Nordeste 0 1012.8 -0.7 69
2019-09-30 13:00:00 26 16 Nordeste 21 Nordeste 0 1013.2 -0.6 72
2019-09-30 12:00:00 25.6 14 Nordeste 19 Nordeste 0 1013.1 -0.2 71
2019-09-30 11:00:00 24.8 9 Nordeste 13 Este 0 1013.5 0.6 74
2019-09-30 10:00:00 23.4 3 Nordeste 8 Nordeste 0 1013.8 0.7 77
2019-09-30 09:00:00 22.4 3 Sur 11 Sudeste 0 1013.3 1 80
2019-09-30 08:00:00 22.3 5 Este 15 Nordeste 0 1012.9 0 80
2019-09-30 07:00:00 22.1 2 Sur 9 Este 0 1013.1 -0.2 80
2019-09-30 06:00:00 22.5 3 Sudeste 10 Este 0 1012.3 -1.3 79
2019-09-30 05:00:00 22.8 3 Sudeste 13 Nordeste 0 1012.9 -0.7 80
2019-09-30 04:00:00 22.8 4 Sudeste 13 Este 0 1013.3 -0.7 80
2019-09-30 03:00:00 22.9 5 Este 10 Nordeste 0 1013.6 -0.6 82
2019-09-30 02:00:00 22.9 3 Nordeste 14 Este 0 1013.6 -0.5 82
2019-09-30 01:00:00 23.1 12 Nordeste 24 Nordeste 0 1014 -0.2 82
2019-09-30 00:00:00 23.1 19 Nordeste 24 Nordeste 0 1014.2 0.7 83
2019-09-29 23:00:00 23.3 16 Nordeste 23 Nordeste 0 1014.1 0.8 82
2019-09-29 22:00:00 23.4 15 Nordeste 23 Nordeste 0 1014.2 1.2 82
2019-09-29 21:00:00 23.6 18 Nordeste 24 Nordeste 0 1013.5 0.4 81
2019-09-29 20:00:00 23.7 15 Nordeste 22 Nordeste 0 1013.3 0.4 79
2019-09-29 19:00:00 24.4 15 Nordeste 20 Nordeste 0 1013 0.1 77
2019-09-29 18:00:00 25 14 Nordeste 23 Nordeste 0 1013.1 -0.3 73
2019-09-29 17:00:00 26.3 17 Nordeste 23 Nordeste 0 1012.9 -1 69
2019-09-29 16:00:00 26.8 18 Nordeste 26 Este 0 1012.9 -1.7 67
2019-09-29 15:00:00 26.4 19 Nordeste 24 Nordeste 0 1013.4 -1.7 67
2019-09-29 14:00:00 27.2 17 Nordeste 21 Este 0 1013.9 -1.2 66
2019-09-29 13:00:00 27 14 Nordeste 19 Este 0 1014.6 -0.6 65
2019-09-29 12:00:00 25 7 Nordeste 21 Nordeste 0 1015.1 0 70
2019-09-29 11:00:00 23.9 17 Nordeste 23 Nordeste 0 1015.1 0.2 74
2019-09-29 10:00:00 23 9 Este 25 Este 0 1015.2 0.5 76
2019-09-29 09:00:00 22.9 5 Sudeste 20 Nordeste 0 1015.1 0.8 74
2019-09-29 08:00:00 22.7 9 Este 18 Nordeste 0 1014.9 0.4 78
2019-09-29 07:00:00 22.6 12 Nordeste 21 Este 0 1014.7 -0.1 80
2019-09-29 06:00:00 22.6 17 Nordeste 28 Nordeste 0 1014.3 -1.1 80
2019-09-29 05:00:00 22.8 15 Nordeste 23 Nordeste 0 1014.5 -1.4 81
2019-09-29 04:00:00 22.7 2 Sudeste 10 Sudeste 0 1014.8 -1.4 75
2019-09-29 03:00:00 22.6 3 Sur 15 Nordeste 0 1015.4 -0.9 74
2019-09-29 02:00:00 22.6 11 Nordeste 17 Nordeste 0 1015.9 -0.6 78
2019-09-29 01:00:00 22.6 2 Sur 11 Nordeste 0 1016.2 0.1 74
2019-09-29 00:00:00 22.7 0 Calma 18 Este 0 1016.3 0.6 76
2019-09-28 23:00:00 22.7 14 Nordeste 23 Nordeste 0 1016.5 1.3 78
2019-09-28 22:00:00 23.1 18 Nordeste 26 Nordeste 0 1016.1 0.9 78
2019-09-28 21:00:00 23.1 18 Nordeste 24 Nordeste 0 1015.7 0.1 78
2019-09-28 20:00:00 23.3 17 Nordeste 23 Nordeste 0 1015.2 -0.4 75
2019-09-28 19:00:00 23.6 17 Nordeste 23 Nordeste 0 1015.2 -0.2 74
2019-09-28 18:00:00 24 14 Nordeste 27 Nordeste 0 1015.6 -0.3 73
2019-09-28 17:00:00 24.1 22 Nordeste 31 Nordeste 0 1015.6 -0.7 72
2019-09-28 16:00:00 24.4 25 Nordeste 32 Nordeste 0 1015.4 -0.9 72
2019-09-28 15:00:00 24.5 24 Nordeste 32 Nordeste 0 1015.9 -0.8 71
2019-09-28 14:00:00 24.8 20 Nordeste 34 Nordeste 0 1016.3 -0.7 71
2019-09-28 13:00:00 24.7 22 Nordeste 30 Nordeste 0 1016.3 -0.4 70
2019-09-28 12:00:00 25.1 15 Nordeste 24 Nordeste 0 1016.7 0.2 68
2019-09-28 11:00:00 24.1 21 Nordeste 26 Nordeste 0 1017 0.6 71
2019-09-28 10:00:00 23.7 6 Este 12 Este 0 1016.7 0.6 69
2019-09-28 09:00:00 22.3 4 Sur 13 Sur 0 1016.5 0.4 70
2019-09-28 08:00:00 21.5 6 Sudeste 14 Este 0 1016.4 0.3 72
2019-09-28 07:00:00 21.9 5 Sudeste 14 Sudeste 0 1016.1 -0.5 71
2019-09-28 06:00:00 21.9 4 Sudeste 13 Sudeste 0 1016.1 -0.9 72
2019-09-28 05:00:00 21.2 3 Sur 10 Sudeste 0 1016.1 -1.3 73
2019-09-28 04:00:00 22 5 Sudeste 11 Sudeste 0 1016.6 -1 71
2019-09-28 03:00:00 22 5 Sudeste 9 Sudeste 0 1017 -1.3 72
2019-09-28 02:00:00 21.7 4 Sudeste 10 Sudeste 0 1017.4 -0.5 73
2019-09-28 01:00:00 21.7 4 Sudeste 8 Sudeste 0 1017.6 0.2 74
2019-09-28 00:00:00 22 4 Sur 10 Sudeste 0 1018.3 1.7 75
2019-09-27 23:00:00 22.6 3 Este 17 Nordeste 0 1017.9 1.7 74
2019-09-27 22:00:00 22.9 13 Nordeste 22 Nordeste 0 1017.4 1.5 78
2019-09-27 21:00:00 23.1 17 Nordeste 26 Nordeste 0 1016.6 0.5 79
2019-09-27 20:00:00 23.4 21 Nordeste 28 Nordeste 0 1016.2 0.4 76
2019-09-27 19:00:00 23.9 18 Nordeste 23 Nordeste 0 1015.9 -0.2 74
2019-09-27 18:00:00 24.4 15 Nordeste 21 Nordeste 0 1016.1 -0.3 72
2019-09-27 17:00:00 25.3 11 Nordeste 14 Nordeste 0 1015.8 -1.2 69
2019-09-27 16:00:00 25.5 11 Nordeste 18 Este 0 1016.1 -1.2 68
2019-09-27 15:00:00 25 14 Nordeste 23 Nordeste 0 1016.4 -1.4 67
2019-09-27 14:00:00 25.5 17 Nordeste 23 Nordeste 0 1017 -0.7 70
2019-09-27 13:00:00 25.5 16 Nordeste 24 Nordeste 0 1017.3 0 68
2019-09-27 12:00:00 24.7 19 Nordeste 27 Nordeste 0 1017.8 0.6 71
2019-09-27 11:00:00 24.2 21 Nordeste 26 Nordeste 0 1017.7 0.4 71
2019-09-27 10:00:00 23.9 16 Nordeste 21 Nordeste 0 1017.3 0.7 74
2019-09-27 09:00:00 23.3 2 Este 12 Sudeste 0 1017.2 0.6 72
2019-09-27 08:00:00 22.9 0 Calma 12 Nordeste 0 1017.3 0.3 74
2019-09-27 07:00:00 22.8 3 Este 13 Sudeste 0 1016.6 -0.5 66
2019-09-27 06:00:00 22.5 5 Sur 13 Sudeste 0 1016.6 -0.8 66
2019-09-27 05:00:00 22.7 4 Sur 12 Sur 0 1017 -0.7 67
2019-09-27 04:00:00 22.4 6 Sudeste 13 Sudeste 0 1017.1 -0.8 68
2019-09-27 03:00:00 23.1 4 Este 20 Nordeste 0 1017.4 -0.4 69
2019-09-27 02:00:00 23.2 15 Nordeste 20 Nordeste 0 1017.7 -0.4 71
2019-09-27 01:00:00 23.6 4 Este 21 Nordeste 0 1017.9 0.2 69
2019-09-27 00:00:00 23.5 18 Nordeste 23 Nordeste 0 1017.8 1.2 73
2019-09-26 23:00:00 23.5 14 Nordeste 24 Nordeste 0 1018.1 1.9 74
2019-09-26 22:00:00 23.6 14 Nordeste 27 Nordeste 0 1017.7 1.6 74
2019-09-26 21:00:00 23.6 19 Nordeste 27 Este 0 1016.6 0.9 71
2019-09-26 20:00:00 23.6 19 Nordeste 26 Nordeste 0 1016.2 0.9 72
2019-09-26 19:00:00 23.8 17 Nordeste 27 Nordeste 0 1016.1 0.6 76
2019-09-26 18:00:00 24.4 21 Nordeste 30 Este 0 1015.7 0 72
2019-09-26 17:00:00 24.8 20 Nordeste 29 Este 0 1015.3 -0.8 70
2019-09-26 16:00:00 24.8 24 Nordeste 38 Nordeste 0 1015.5 -1.3 70
2019-09-26 15:00:00 24.9 27 Nordeste 35 Nordeste 0 1015.7 -1.2 72
2019-09-26 14:00:00 24.9 27 Nordeste 35 Nordeste 0 1016.1 -0.8 71
2019-09-26 13:00:00 24.9 23 Nordeste 30 Nordeste 0 1016.8 -0.2 73
2019-09-26 12:00:00 25.6 22 Nordeste 32 Nordeste 0 1016.9 0.5 72
2019-09-26 11:00:00 25.4 18 Nordeste 26 Nordeste 0 1016.9 0.6 70
2019-09-26 10:00:00 23.9 12 Nordeste 20 Nordeste 0 1017 1.2 77
2019-09-26 09:00:00 23.8 12 Nordeste 21 Nordeste 0 1016.4 1.2 77
2019-09-26 08:00:00 23.1 6 Sudeste 21 Sudeste 0 1016.3 1.4 70
2019-09-26 07:00:00 22.5 6 Sudeste 36 Nordeste 0 1015.8 0.7 81
2019-09-26 06:00:00 22.3 30 Nordeste 39 Nordeste 0 1015.2 -0.5 91
2019-09-26 05:00:00 23.1 3 Este 12 Sudeste 0 1014.9 -1 69
2019-09-26 04:00:00 22.4 5 Sudeste 17 Sur 0 1015.1 -1.1 69
2019-09-26 03:00:00 22.2 6 Sur 14 Sudeste 0 1015.7 -0.8 71
2019-09-26 02:00:00 21.8 5 Sur 13 Sudeste 0 1015.9 -0.8 72
2019-09-26 01:00:00 22 3 Sur 11 Sur 0 1016.2 0 72
2019-09-26 00:00:00 21.6 3 Sur 13 Sur 0 1016.5 0.9 71
2019-09-25 23:00:00 21.6 7 Sur 15 Sudeste 0 1016.7 1.6 71
2019-09-25 22:00:00 22.4 6 Sur 23 Nordeste 0 1016.2 1.2 71
2019-09-25 21:00:00 23.4 18 Nordeste 25 Nordeste 0 1015.6 0.8 77
2019-09-25 20:00:00 23.6 19 Nordeste 28 Nordeste 0 1015.1 0.1 74
2019-09-25 19:00:00 24.6 20 Nordeste 27 Nordeste 0 1015 -0.2 74
2019-09-25 18:00:00 24.6 18 Nordeste 24 Nordeste 0 1014.8 -0.8 72
2019-09-25 17:00:00 24.8 18 Nordeste 24 Este 0 1015 -1 71
2019-09-25 16:00:00 25.2 13 Nordeste 53 Nordeste 0 1015.2 -1.5 70
2019-09-25 15:00:00 25.1 21 Nordeste 27 Nordeste 0 1015.6 -1.5 68
2019-09-25 14:00:00 25.4 16 Nordeste 24 Nordeste 0 1016 -1.3 68
2019-09-25 13:00:00 25.5 20 Nordeste 25 Nordeste 0 1016.7 -0.4 67
2019-09-25 12:00:00 25.7 19 Nordeste 24 Nordeste 0 1017.1 -0.2 65
2019-09-25 11:00:00 25 15 Nordeste 20 Nordeste 0 1017.3 0.2 67
2019-09-25 10:00:00 24.4 8 Este 15 Este 0 1017.1 0.3 66
2019-09-25 09:00:00 23.1 5 Sudeste 12 Sudeste 0 1017.3 0.5 65
2019-09-25 08:00:00 21.8 5 Sudeste 15 Sudeste 0 1017.1 0.5 66
2019-09-25 07:00:00 21.6 6 Sur 15 Sur 0 1016.8 0 67
2019-09-25 06:00:00 22 4 Sudeste 11 Este 0 1016.8 -0.4 67
2019-09-25 05:00:00 22.4 3 Este 11 Sur 0 1016.6 -1 65
2019-09-25 04:00:00 22.3 4 Sudeste 12 Sudeste 0 1016.8 -1.2 65
2019-09-25 03:00:00 22.5 5 Sudeste 12 Sudeste 0 1017.2 -1.1 65
2019-09-25 02:00:00 22.6 7 Sudeste 17 Sudeste 0 1017.6 -0.6 65
2019-09-25 01:00:00 22.6 5 Sudeste 13 Sudeste 0 1018 0 66
2019-09-25 00:00:00 22.5 6 Sudeste 12 Sudeste 0 1018.3 1.2 67
2019-09-24 23:00:00 22.8 5 Este 13 Este 0 1018.2 1.2 70
2019-09-24 22:00:00 23.1 3 Este 24 Nordeste 0 1018 1.1 70
2019-09-24 21:00:00 23.2 21 Nordeste 29 Nordeste 0 1017.1 0.4 74
2019-09-24 20:00:00 23.4 22 Nordeste 30 Nordeste 0 1017 0.1 67
2019-09-24 19:00:00 23.8 21 Nordeste 31 Este 0 1016.9 -0.3 71
2019-09-24 18:00:00 24.3 21 Nordeste 29 Nordeste 0 1016.7 -0.9 69
2019-09-24 17:00:00 24.5 20 Nordeste 27 Nordeste 0 1016.9 -1.1 69
2019-09-24 16:00:00 24.4 19 Nordeste 26 Nordeste 0 1017.2 -1.3 69
2019-09-24 15:00:00 24.6 20 Nordeste 28 Nordeste 0 1017.6 -1.1 67
2019-09-24 14:00:00 24.8 23 Nordeste 30 Nordeste 0 1018 -0.8 67
2019-09-24 13:00:00 24.9 23 Nordeste 29 Nordeste 0 1018.5 -0.2 68
2019-09-24 12:00:00 25.9 15 Nordeste 20 Nordeste 0 1018.7 0.1 67
2019-09-24 11:00:00 24.9 9 Nordeste 14 Este 0 1018.8 0.9 64
2019-09-24 10:00:00 23.8 9 Este 15 Nordeste 0 1018.7 1.1 68
2019-09-24 09:00:00 22.8 12 Este 22 Nordeste 0 1018.6 1.6 72
2019-09-24 08:00:00 22 3 Sur 12 Sur 0 1017.9 0.8 67
2019-09-24 07:00:00 21.4 5 Sur 13 Sur 0 1017.6 0.4 66
2019-09-24 06:00:00 21.4 4 Sur 9 Sur 0 1017 -0.8 68
2019-09-24 05:00:00 21 5 Sur 12 Sur 0 1017.1 -1.2 68
2019-09-24 04:00:00 20.4 6 Sur 12 Sur 0 1017.2 -1.3 70
2019-09-24 03:00:00 20.8 6 Sur 14 Sur 0 1017.8 -0.4 69
2019-09-24 02:00:00 20.8 6 Sur 13 Sudeste 0 1018.3 -0.4 71
2019-09-24 01:00:00 21.2 6 Sur 14 Sudeste 0 1018.5 0.3 71
2019-09-24 00:00:00 21.5 5 Sur 10 Sudeste 0 1018.2 0.4 73
2019-09-23 23:00:00 22.6 6 Este 20 Nordeste 0 1018.7 1.4 70
2019-09-23 22:00:00 22.9 14 Nordeste 26 Nordeste 0 1018.2 1 74
2019-09-23 21:00:00 23.1 19 Nordeste 26 Nordeste 0 1017.8 0.8 75
2019-09-23 20:00:00 23.8 18 Nordeste 22 Nordeste 0 1017.3 0.1 74
2019-09-23 19:00:00 24.1 16 Nordeste 20 Nordeste 0 1017.2 0.2 72
2019-09-23 18:00:00 24.5 15 Nordeste 23 Nordeste 0 1017 -0.2 70
2019-09-23 17:00:00 24.6 17 Nordeste 26 Nordeste 0 1017.2 -0.4 69
2019-09-23 16:00:00 24.7 19 Nordeste 29 Nordeste 0 1017 -0.8 70
2019-09-23 15:00:00 24.9 18 Nordeste 27 Nordeste 0 1017.2 -0.5 69
2019-09-23 14:00:00 24.5 21 Nordeste 33 Este 0 1017.6 0.1 70
2019-09-23 13:00:00 24.3 24 Nordeste 30 Nordeste 0 1017.8 0.7 71
2019-09-23 12:00:00 24.6 21 Nordeste 26 Nordeste 0 1017.7 0.7 70
2019-09-23 11:00:00 25.5 10 Nordeste 16 Nordeste 0 1017.5 0.7 69
2019-09-23 10:00:00 24.7 6 Nordeste 13 Este 0 1017.1 0.5 68
2019-09-23 09:00:00 23.7 6 Este 17 Nordeste 0 1017 0.9 74
2019-09-23 08:00:00 22.8 10 Nordeste 17 Este 0 1016.8 1 76
2019-09-23 07:00:00 22.8 8 Este 17 Este 0 1016.6 0.8 76
2019-09-23 06:00:00 22.7 13 Este 27 Nordeste 0 1016.1 0 79
2019-09-23 05:00:00 22.8 22 Nordeste 28 Este 0 1015.8 -0.6 82
2019-09-23 04:00:00 23.1 19 Nordeste 24 Nordeste 0 1015.8 -0.7 83
2019-09-23 03:00:00 23.8 15 Nordeste 19 Nordeste 0 1016.1 -0.6 79
2019-09-23 02:00:00 24 10 Nordeste 20 Nordeste 0 1016.4 -0.5 75
2019-09-23 01:00:00 24 12 Nordeste 23 Nordeste 0 1016.5 0.2 80
2019-09-23 00:00:00 24 17 Nordeste 24 Nordeste 0 1016.7 1.1 81
2019-09-22 23:00:00 24 21 Nordeste 30 Nordeste 0 1016.9 1.7 82
2019-09-22 22:00:00 23.6 27 Nordeste 36 Nordeste 0 1016.3 1.6 87
2019-09-22 21:00:00 24.4 25 Nordeste 33 Nordeste 0 1015.6 1.5 86
2019-09-22 20:00:00 24.5 18 Nordeste 29 Nordeste 0 1015.2 1.3 84
2019-09-22 19:00:00 24.9 23 Nordeste 30 Nordeste 0 1014.7 1 82
2019-09-22 18:00:00 26.5 18 Nordeste 25 Este 0 1014.1 0 75
2019-09-22 17:00:00 27.3 17 Nordeste 21 Nordeste 0 1013.9 -0.5 71
2019-09-22 16:00:00 29.4 13 Nordeste 18 Nordeste 0 1013.7 -1.2 64
2019-09-22 15:00:00 29.6 9 Nordeste 13 Nordeste 0 1014.1 -1.4 62
2019-09-22 14:00:00 28.6 8 Nordeste 12 Nordeste 0 1014.4 -1.3 64
2019-09-22 13:00:00 28 5 Nordeste 14 Este 0 1014.9 -0.5 63
2019-09-22 12:00:00 26.6 10 Nordeste 15 Este 0 1015.5 0.4 67
2019-09-22 11:00:00 25.6 4 Nordeste 7 Norte 0 1015.7 0.3 64
2019-09-22 10:00:00 25.8 4 Nordeste 8 Nordeste 0 1015.4 0.3 62
2019-09-22 09:00:00 23.5 3 Sur 11 Sur 0 1015.1 0.5 62
2019-09-22 08:00:00 21.8 5 Sur 10 Sudeste 0 1015.4 0.9 66
2019-09-22 07:00:00 21.5 4 Sur 10 Sur 0 1015.1 0.8 69
2019-09-22 06:00:00 21.5 4 Sur 9 Sur 0 1014.6 0.3 70
2019-09-22 05:00:00 21.6 4 Sur 9 Sur 0 1014.5 -0.2 68
2019-09-22 04:00:00 21.7 5 Sur 8 Sudeste 0 1014.3 -0.8 65
2019-09-22 03:00:00 22 3 Sur 10 Sudeste 0 1014.3 -0.8 65
2019-09-22 02:00:00 22 4 Sur 10 Sur 0 1014.7 -0.3 71
2019-09-22 01:00:00 22.5 3 Sur 9 Sudeste 0 1015.1 0.6 73
2019-09-22 00:00:00 23.1 3 Sur 7 Sur 0 1015.1 1.4 74
2019-09-21 23:00:00 23.6 0 Calma 7 Nordeste 0 1015 1.6 75
2019-09-21 22:00:00 24.4 2 Nordeste 6 Este 0 1014.5 1.5 76
2019-09-21 21:00:00 24.6 2 Nordeste 7 Norte 0 1013.7 0.9 73
2019-09-21 20:00:00 24.7 4 Norte 8 Nordeste 0 1013.4 0.5 72
2019-09-21 19:00:00 25.4 5 Norte 10 Norte 0 1013 0 70
2019-09-21 18:00:00 26.4 3 Nordeste 10 Nordeste 0 1012.8 -0.5 67
2019-09-21 17:00:00 25.4 7 Norte 12 Norte 0 1012.9 -0.6 68
2019-09-21 16:00:00 26.1 5 Norte 10 Norte 0 1013 -1.1 67
2019-09-21 15:00:00 25.9 5 Norte 9 Norte 0 1013.3 -1 67
2019-09-21 14:00:00 25.4 5 Nordeste 12 Norte 0 1013.5 -0.7 66
2019-09-21 13:00:00 25.1 7 Nordeste 10 Nordeste 0 1014.1 0.3 64
2019-09-21 12:00:00 25.5 6 Nordeste 10 Nordeste 0 1014.3 0.5 64
2019-09-21 11:00:00 24.5 5 Nordeste 8 Norte 0 1014.2 0.6 61
2019-09-21 10:00:00 24.5 2 Nordeste 7 Sudeste 0 1013.8 0.6 58
2019-09-21 09:00:00 22.5 3 Sur 11 Sur 0 1013.8 0.8 56
2019-09-21 08:00:00 20.4 4 Sur 9 Sur 0 1013.6 0.8 64
2019-09-21 07:00:00 20.5 4 Sur 10 Sur 0 1013.2 0.2 67
2019-09-21 06:00:00 20.4 4 Sur 11 Sur 0 1013 -0.3 67
2019-09-21 05:00:00 20.5 5 Sur 12 Sur 0 1012.8 -0.7 67
2019-09-21 04:00:00 20.6 4 Sur 10 Sudeste 0 1013 -0.8 68
2019-09-21 03:00:00 20.8 4 Sur 9 Sudeste 0 1013.3 -1.1 70
2019-09-21 02:00:00 21.1 4 Sur 10 Sur 0 1013.5 -0.9 71
2019-09-21 01:00:00 21.4 4 Sur 8 Sur 0 1013.8 0 74
2019-09-21 00:00:00 21.8 4 Sur 8 Sur 0 1014.4 1 75
2019-09-20 23:00:00 22.7 2 Sudeste 9 Nordeste 0 1014.4 1.6 76
2019-09-20 22:00:00 23.6 6 Nordeste 9 Nordeste 0 1013.8 1.4 77
2019-09-20 21:00:00 24.2 7 Nordeste 12 Este 0 1013.4 1 74
2019-09-20 20:00:00 25 7 Este 13 Nordeste 0 1012.8 0.4 70
2019-09-20 19:00:00 26.8 9 Nordeste 13 Nordeste 0 1012.4 -0.5 65
2019-09-20 18:00:00 26.8 9 Nordeste 15 Este 0 1012.4 -1 63
2019-09-20 17:00:00 28 11 Nordeste 15 Nordeste 0 1012.4 -1.5 61
2019-09-20 16:00:00 26.7 10 Nordeste 14 Nordeste 0 1012.9 -1.4 64
2019-09-20 15:00:00 26.7 10 Nordeste 17 Nordeste 0 1013.4 -1.6 62
2019-09-20 14:00:00 27.1 12 Nordeste 17 Nordeste 0 1013.9 -1.1 63
2019-09-20 13:00:00 26.8 12 Nordeste 15 Nordeste 0 1014.3 -0.3 63
2019-09-20 12:00:00 25.3 10 Nordeste 14 Nordeste 0 1015 0.5 67
2019-09-20 11:00:00 25.2 7 Nordeste 12 Este 0 1015 0.7 69
2019-09-20 10:00:00 24.4 7 Este 12 Nordeste 0 1014.6 0.3 69
2019-09-20 09:00:00 22.7 4 Sudeste 12 Sudeste 0 1014.5 0.4 66
2019-09-20 08:00:00 20.6 4 Sur 14 Sur 0 1014.3 0.2 71
2019-09-20 07:00:00 20.2 5 Sur 13 Sur 0 1014.3 -0.3 73
2019-09-20 06:00:00 20.4 6 Sur 12 Sur 0 1014.1 -1.2 68
2019-09-20 05:00:00 20.4 7 Sur 13 Sudeste 0 1014.1 -1.2 71
2019-09-20 04:00:00 20.6 5 Sur 12 Sudeste 0 1014.6 -1.3 70
2019-09-20 03:00:00 20.9 6 Sur 13 Sudeste 0 1015.3 -0.7 70
2019-09-20 02:00:00 21.4 5 Sur 13 Sudeste 0 1015.3 -0.8 70
2019-09-20 01:00:00 21.2 6 Sur 14 Sudeste 0 1015.9 0.3 71
2019-09-20 00:00:00 21.6 6 Sur 13 Sur 0 1016 1.2 72
2019-09-19 23:00:00 22.2 6 Sur 16 Nordeste 0 1016.1 1.7 72
2019-09-19 22:00:00 23 12 Nordeste 19 Este 0 1015.6 1.8 77
2019-09-19 21:00:00 23.5 14 Nordeste 18 Nordeste 0 1014.8 1.4 76
2019-09-19 20:00:00 24 17 Nordeste 21 Nordeste 0 1014.4 0.9 73
2019-09-19 19:00:00 24.6 16 Nordeste 21 Nordeste 0 1013.8 0.4 70
2019-09-19 18:00:00 26.2 16 Nordeste 21 Este 0 1013.4 -0.4 66
2019-09-19 17:00:00 27.3 16 Nordeste 22 Nordeste 0 1013.5 -1 63
2019-09-19 16:00:00 27 16 Nordeste 21 Nordeste 0 1013.4 -1.6 62
2019-09-19 15:00:00 27 15 Nordeste 19 Este 0 1013.8 -1.4 64
2019-09-19 14:00:00 25.2 14 Nordeste 23 Nordeste 0 1014.5 -0.6 69
2019-09-19 13:00:00 25.5 17 Nordeste 22 Nordeste 0 1015 -0.1 68
2019-09-19 12:00:00 26 17 Nordeste 21 Nordeste 0 1015.2 0.5 67
2019-09-19 11:00:00 24.9 16 Nordeste 19 Nordeste 0 1015.1 0.2 68
2019-09-19 10:00:00 24.3 8 Este 14 Este 0 1015.1 0.6 66
2019-09-19 09:00:00 22.8 4 Sudeste 13 Sur 0 1014.7 0.5 68
2019-09-19 08:00:00 21 7 Sur 18 Sur 0 1014.9 0.7 71
2019-09-19 07:00:00 20.8 6 Sur 13 Sudeste 0 1014.5 0 72
2019-09-19 06:00:00 21.2 5 Sur 12 Sudeste 0 1014.2 -0.5 71
2019-09-19 05:00:00 21.3 4 Sur 11 Sudeste 0 1014.2 -0.7 71
2019-09-19 04:00:00 21.9 4 Sur 8 Sudeste 0 1014.5 -0.4 68
2019-09-19 03:00:00 21.9 2 Sudeste 10 Sur 0 1014.7 -0.7 68
2019-09-19 02:00:00 22.1 3 Sur 9 Sur 0 1014.9 -0.3 73
2019-09-19 01:00:00 21.8 0 Calma 8 Sur 0 1014.9 0.1 74
2019-09-19 00:00:00 22.3 3 Sur 12 Este 0 1015.4 1.2 72
2019-09-18 23:00:00 23 8 Este 28 Nordeste 0 1015.2 1.4 74
2019-09-18 22:00:00 23.5 20 Nordeste 29 Nordeste 0 1014.8 1.2 77
2019-09-18 21:00:00 23.6 20 Nordeste 26 Este 0 1014.2 0.7 76
2019-09-18 20:00:00 24.1 15 Nordeste 23 Nordeste 0 1013.8 0.6 73
2019-09-18 19:00:00 24.5 18 Nordeste 26 Nordeste 0 1013.6 0.4 70
2019-09-18 18:00:00 25.3 18 Nordeste 25 Nordeste 0 1013.5 -0.3 66
2019-09-18 17:00:00 27.1 19 Nordeste 26 Nordeste 0 1013.2 -0.6 61
2019-09-18 16:00:00 26.8 19 Nordeste 24 Nordeste 0 1013.2 -1 60
2019-09-18 15:00:00 27.1 18 Nordeste 28 Nordeste 0 1013.8 -0.9 58
2019-09-18 14:00:00 26.4 24 Nordeste 30 Nordeste 0 1013.8 -0.8 61
2019-09-18 13:00:00 26.3 18 Nordeste 27 Nordeste 0 1014.2 -0.5 60
2019-09-18 12:00:00 25.3 10 Nordeste 23 Nordeste 0 1014.7 0.1 60
2019-09-18 11:00:00 25 12 Nordeste 17 Nordeste 0 1014.6 0.5 64
2019-09-18 10:00:00 23.5 2 Nordeste 6 Nordeste 0 1014.7 0.9 67
2019-09-18 09:00:00 22.7 3 Sur 10 Sur 0 1014.6 1.2 69
2019-09-18 08:00:00 22 4 Sudeste 13 Sudeste 0 1014.1 0.9 70
2019-09-18 07:00:00 22.1 5 Sudeste 14 Sudeste 0 1013.8 0.2 70
2019-09-18 06:00:00 22.2 4 Sudeste 11 Sur 0 1013.4 -0.5 71
2019-09-18 05:00:00 22.3 3 Sudeste 9 Sudeste 0 1013.2 -1.2 71
2019-09-18 04:00:00 22.4 3 Este 12 Este 0 1013.6 -1.2 72
2019-09-18 03:00:00 22.5 5 Este 12 Este 0 1013.9 -0.9 73
2019-09-18 02:00:00 22.6 5 Este 12 Nordeste 0 1014.4 -0.5 76
2019-09-18 01:00:00 22.6 7 Este 13 Este 0 1014.8 0.5 76
2019-09-18 00:00:00 22.6 5 Este 18 Nordeste 0 1014.8 0.7 78
2019-09-17 23:00:00 23.1 13 Nordeste 24 Nordeste 0 1014.9 1.1 78
2019-09-17 22:00:00 23.2 15 Nordeste 22 Nordeste 0 1014.3 0.7 80
2019-09-17 21:00:00 23.3 15 Nordeste 22 Nordeste 0 1014.1 1 77
2019-09-17 20:00:00 23.4 15 Nordeste 25 Nordeste 0 1013.8 0.3 77